Time;durP1;ratioP1;P1;durP2;ratioP2;P2;SDS_P1;SDS_P2;PMS_P1;PMS_P2;Temp;Humidity;BMP_temperature;BMP_pressure;BME280_temperature;BME280_humidity;BME280_pressure;Samples;Min_cycle;Max_cycle;Signal;HPM_P1;HPM_P2
2022/12/30 05:05:33;;;;;;;0.98;0.45;;;6.20;99.90;;;;;;5194679;23;20234;-66
2022/12/30 05:07:59;;;;;;;0.93;0.50;;;6.20;99.90;;;;;;4976996;28;20184;-67
2022/12/30 05:10:25;;;;;;;0.40;0.40;;;6.10;99.90;;;;;;4977017;28;20256;-67
2022/12/30 05:12:50;;;;;;;0.50;0.50;;;6.10;99.90;;;;;;4976565;28;20183;-67
2022/12/30 05:15:16;;;;;;;8.53;0.70;;;6.00;99.90;;;;;;4976959;28;20677;-67
2022/12/30 05:17:41;;;;;;;0.50;0.50;;;5.90;99.90;;;;;;4976510;28;20617;-67
2022/12/30 05:20:07;;;;;;;0.70;0.70;;;5.90;99.90;;;;;;4976985;28;20266;-68
2022/12/30 05:22:33;;;;;;;0.50;0.50;;;5.80;99.90;;;;;;4959786;28;20673;-67
2022/12/30 05:27:43;;;;;;;0.50;0.50;;;5.80;99.90;;;;;;4976782;28;20182;-67
2022/12/30 05:30:09;;;;;;;1.00;0.67;;;5.80;99.90;;;;;;4976848;28;20636;-69
2022/12/30 05:32:34;;;;;;;0.50;0.50;;;5.70;99.90;;;;;;4976887;28;20172;-68
2022/12/30 05:35:00;;;;;;;0.50;0.50;;;5.70;99.90;;;;;;4974808;28;20576;-68
2022/12/30 05:37:26;;;;;;;0.43;0.43;;;5.70;99.90;;;;;;4976754;28;20172;-68
2022/12/30 05:39:51;;;;;;;0.53;0.53;;;5.70;99.90;;;;;;4976852;28;20164;-67
2022/12/30 05:42:17;;;;;;;1.90;0.80;;;5.60;99.90;;;;;;4976072;28;20187;-68
2022/12/30 05:44:42;;;;;;;0.90;0.90;;;5.60;99.90;;;;;;4976385;28;20196;-68
2022/12/30 05:47:08;;;;;;;0.57;0.50;;;5.60;99.90;;;;;;4976590;28;20228;-70
2022/12/30 05:49:35;;;;;;;1.07;1.03;;;5.60;99.90;;;;;;4976452;28;20179;-67
2022/12/30 05:52:00;;;;;;;0.60;0.50;;;5.50;99.90;;;;;;4976232;28;20171;-68
2022/12/30 05:54:26;;;;;;;0.40;0.40;;;5.50;99.90;;;;;;4976061;28;20197;-67
2022/12/30 05:56:51;;;;;;;0.70;0.70;;;5.50;99.90;;;;;;4974850;28;20217;-67
2022/12/30 05:59:17;;;;;;;0.60;0.60;;;5.50;99.90;;;;;;4957007;29;20661;-67
2022/12/30 06:01:43;;;;;;;0.30;0.30;;;5.50;99.90;;;;;;4956800;29;20662;-66
2022/12/30 06:04:08;;;;;;;0.60;0.60;;;5.50;99.90;;;;;;4956472;29;20189;-68
2022/12/30 06:06:34;;;;;;;0.80;0.53;;;5.50;99.90;;;;;;4956624;29;20207;-67
2022/12/30 06:09:00;;;;;;;0.67;0.67;;;5.50;99.90;;;;;;4956830;29;20180;-68
2022/12/30 06:11:26;;;;;;;0.77;0.50;;;5.40;99.90;;;;;;4956541;28;20174;-68
2022/12/30 06:13:51;;;;;;;0.40;0.40;;;5.40;99.90;;;;;;4975545;28;20192;-68
2022/12/30 06:16:17;;;;;;;0.90;0.60;;;5.30;99.90;;;;;;4964346;28;20437;-67
2022/12/30 06:18:42;;;;;;;0.47;0.47;;;5.30;99.90;;;;;;4956254;29;20644;-67
2022/12/30 06:21:08;;;;;;;0.30;0.30;;;5.20;99.90;;;;;;4939059;29;20176;-67
2022/12/30 06:23:34;;;;;;;0.90;0.50;;;5.30;99.90;;;;;;4956134;29;20330;-67
2022/12/30 06:25:59;;;;;;;0.43;0.43;;;5.30;99.90;;;;;;4956316;29;20200;-66
2022/12/30 06:28:27;;;;;;;0.40;0.40;;;5.30;99.90;;;;;;4973493;28;20207;-68
2022/12/30 06:30:53;;;;;;;0.52;0.52;;;5.30;99.90;;;;;;4975580;28;20177;-66
2022/12/30 06:33:19;;;;;;;0.60;0.60;;;5.30;99.90;;;;;;4975197;28;20578;-67
2022/12/30 06:35:47;;;;;;;0.50;0.40;;;5.30;99.90;;;;;;4975320;28;20488;-67
2022/12/30 06:38:12;;;;;;;0.68;0.68;;;5.30;99.90;;;;;;4958058;28;20188;-67
2022/12/30 06:40:38;;;;;;;0.60;0.60;;;5.20;99.90;;;;;;4975449;28;20170;-67
2022/12/30 06:43:04;;;;;;;0.50;0.50;;;5.20;99.90;;;;;;4940181;29;20211;-67
2022/12/30 06:45:29;;;;;;;0.97;0.93;;;5.20;99.90;;;;;;4955818;29;20204;-67
2022/12/30 06:47:55;;;;;;;1.03;0.70;;;5.20;99.90;;;;;;4970888;28;20166;-67
2022/12/30 06:50:20;;;;;;;0.60;0.60;;;5.10;99.90;;;;;;4955904;29;20173;-66
2022/12/30 06:52:46;;;;;;;0.73;0.57;;;5.10;99.90;;;;;;4955691;29;20248;-67
2022/12/30 06:55:12;;;;;;;0.87;0.87;;;5.10;99.90;;;;;;4955791;29;20190;-67
2022/12/30 06:57:37;;;;;;;0.60;0.60;;;5.10;99.90;;;;;;4971925;28;20186;-67
2022/12/30 07:00:05;;;;;;;0.50;0.50;;;5.10;99.90;;;;;;4975319;28;20583;-67
2022/12/30 07:02:31;;;;;;;0.85;0.85;;;5.10;99.90;;;;;;4975047;28;20176;-67
2022/12/30 07:04:57;;;;;;;0.90;0.90;;;5.00;99.90;;;;;;4974256;28;20197;-67
2022/12/30 07:07:23;;;;;;;0.70;0.70;;;4.90;99.90;;;;;;4967610;28;20523;-67
2022/12/30 07:09:48;;;;;;;1.50;0.90;;;4.90;99.90;;;;;;4955672;28;20196;-67
2022/12/30 07:12:14;;;;;;;0.80;0.80;;;4.80;99.90;;;;;;4955743;29;20401;-67
2022/12/30 07:14:40;;;;;;;0.60;0.60;;;4.80;99.90;;;;;;4955060;29;20203;-67
2022/12/30 07:17:05;;;;;;;2.23;0.87;;;4.80;99.90;;;;;;4955416;29;20216;-67
2022/12/30 07:19:31;;;;;;;1.00;1.00;;;4.70;99.90;;;;;;4955646;29;20188;-67
2022/12/30 07:21:57;;;;;;;0.93;0.90;;;4.60;99.90;;;;;;4961034;28;20534;-68
2022/12/30 07:24:23;;;;;;;0.90;0.60;;;4.60;99.90;;;;;;4964979;28;20205;-67
2022/12/30 07:26:48;;;;;;;1.20;1.08;;;4.60;99.90;;;;;;4955338;29;20658;-68
2022/12/30 07:29:14;;;;;;;1.03;1.03;;;4.50;99.90;;;;;;4958360;28;20176;-66
2022/12/30 07:31:40;;;;;;;1.20;1.10;;;4.40;99.90;;;;;;4974404;28;20200;-67
2022/12/30 07:34:06;;;;;;;1.27;1.20;;;4.40;99.90;;;;;;4958794;28;20258;-67
2022/12/30 07:36:32;;;;;;;0.80;0.80;;;4.40;99.90;;;;;;4937944;29;20628;-68
2022/12/30 07:38:59;;;;;;;1.00;0.90;;;4.40;99.90;;;;;;4955131;29;20185;-69
2022/12/30 07:41:25;;;;;;;2.50;1.52;;;4.50;99.90;;;;;;4960505;28;20449;-71
2022/12/30 07:43:51;;;;;;;0.98;0.98;;;4.70;99.90;;;;;;4961120;28;20607;-69
2022/12/30 07:46:17;;;;;;;1.20;1.20;;;4.80;99.90;;;;;;4962468;28;20201;-66
2022/12/30 07:48:42;;;;;;;4.13;1.27;;;5.00;99.90;;;;;;4969268;28;20929;-67
2022/12/30 07:51:09;;;;;;;0.60;0.60;;;5.00;99.90;;;;;;4961557;29;20177;-65
2022/12/30 07:53:35;;;;;;;1.70;1.30;;;5.00;99.90;;;;;;4951285;28;20655;-67
2022/12/30 07:56:09;;;;;;;1.10;1.10;;;5.10;99.90;;;;;;4980475;28;20178;-66
2022/12/30 07:58:35;;;;;;;1.50;1.40;;;5.00;99.90;;;;;;4978605;28;20213;-67
2022/12/30 08:01:13;;;;;;;1.90;1.27;;;5.00;99.90;;;;;;4961430;28;20196;-66
2022/12/30 08:03:40;;;;;;;1.38;1.27;;;5.00;99.90;;;;;;4961186;28;20400;-65
2022/12/30 08:06:08;;;;;;;2.70;1.88;;;5.10;99.90;;;;;;4966607;28;20261;-66
2022/12/30 08:08:35;;;;;;;1.85;1.75;;;5.10;99.90;;;;;;4970496;28;20591;-67
2022/12/30 08:11:02;;;;;;;1.75;1.65;;;5.20;99.90;;;;;;4967999;28;20549;-67
2022/12/30 08:13:30;;;;;;;1.75;1.40;;;5.20;99.90;;;;;;4980143;28;20223;-66
2022/12/30 08:15:56;;;;;;;1.38;1.38;;;5.20;99.90;;;;;;4977685;28;20203;-66
2022/12/30 08:18:21;;;;;;;1.97;1.87;;;5.30;99.90;;;;;;4975378;28;20279;-65
2022/12/30 08:20:47;;;;;;;2.40;1.70;;;5.40;99.90;;;;;;4970082;28;20215;-64
2022/12/30 08:23:12;;;;;;;1.97;1.87;;;5.60;99.90;;;;;;4980080;28;20247;-65
2022/12/30 08:25:38;;;;;;;2.03;1.83;;;5.80;99.90;;;;;;4977862;28;20314;-67
2022/12/30 08:28:04;;;;;;;2.20;1.97;;;6.10;99.90;;;;;;4966148;28;20658;-66
2022/12/30 08:30:29;;;;;;;3.97;2.60;;;6.50;99.90;;;;;;4974749;28;20179;-67
2022/12/30 08:32:55;;;;;;;2.20;2.10;;;7.00;99.90;;;;;;4961155;28;20543;-65
2022/12/30 08:35:20;;;;;;;1.33;1.23;;;7.40;99.90;;;;;;4974691;28;20207;-67
2022/12/30 08:37:46;;;;;;;3.43;1.73;;;7.90;99.90;;;;;;4942995;28;20259;-67
2022/12/30 08:40:12;;;;;;;1.53;1.43;;;8.30;99.90;;;;;;4959446;29;20518;-67
2022/12/30 08:42:38;;;;;;;1.30;1.30;;;8.70;99.90;;;;;;4960677;28;20256;-66
2022/12/30 08:45:05;;;;;;;1.60;1.50;;;9.20;99.90;;;;;;4960689;28;20209;-66
2022/12/30 08:47:33;;;;;;;1.73;1.40;;;9.80;99.90;;;;;;4961155;28;20498;-66
2022/12/30 08:49:59;;;;;;;1.67;1.27;;;10.20;99.90;;;;;;4964496;28;20432;-66
2022/12/30 08:52:24;;;;;;;1.67;1.40;;;10.60;99.90;;;;;;4977606;28;20856;-67
2022/12/30 08:54:50;;;;;;;0.97;0.97;;;10.80;99.90;;;;;;4976920;28;20195;-66
2022/12/30 08:57:16;;;;;;;1.00;1.00;;;11.20;99.90;;;;;;4977347;28;20534;-68
2022/12/30 08:59:41;;;;;;;1.27;1.20;;;11.60;99.90;;;;;;4977847;28;20203;-67
2022/12/30 09:02:11;;;;;;;1.63;1.53;;;12.20;99.90;;;;;;4977150;28;20175;-67
2022/12/30 09:04:37;;;;;;;1.07;1.00;;;12.50;99.90;;;;;;4960509;28;20202;-68
2022/12/30 09:07:02;;;;;;;0.90;0.90;;;12.90;99.90;;;;;;4957773;29;20520;-67
2022/12/30 09:09:29;;;;;;;1.40;1.30;;;13.30;99.90;;;;;;4957945;29;20182;-66
2022/12/30 09:11:55;;;;;;;1.10;1.10;;;13.80;99.90;;;;;;4972380;28;20177;-67
2022/12/30 09:14:22;;;;;;;1.17;1.10;;;14.30;99.90;;;;;;4940172;29;20904;-69
2022/12/30 09:16:48;;;;;;;0.77;0.77;;;14.70;99.90;;;;;;4957619;29;20470;-68
2022/12/30 09:19:14;;;;;;;0.80;0.80;;;14.90;99.90;;;;;;4957791;28;20939;-67
2022/12/30 09:21:39;;;;;;;1.40;1.17;;;15.20;99.90;;;;;;4940513;29;20787;-68
2022/12/30 09:24:05;;;;;;;1.10;1.00;;;15.50;99.90;;;;;;4940099;29;20447;-68
2022/12/30 09:26:31;;;;;;;0.97;0.97;;;15.80;98.70;;;;;;4957595;29;20209;-68
2022/12/30 09:28:57;;;;;;;0.67;0.67;;;15.90;98.40;;;;;;4957630;29;20297;-67
2022/12/30 09:31:24;;;;;;;0.73;0.73;;;15.90;98.40;;;;;;4957555;29;20176;-67
2022/12/30 09:33:50;;;;;;;0.93;0.93;;;16.00;97.90;;;;;;4953741;28;20851;-68
2022/12/30 09:36:15;;;;;;;0.80;0.80;;;16.00;96.80;;;;;;4978546;28;20416;-67
2022/12/30 09:38:41;;;;;;;0.73;0.73;;;16.00;97.00;;;;;;4985027;28;20416;-67
2022/12/30 09:44:37;;;;;;;3.07;0.97;;;16.30;97.10;;;;;;4986899;28;20515;-68
2022/12/30 09:47:27;;;;;;;4.53;1.50;;;16.50;96.50;;;;;;4984598;28;20444;-67
2022/12/30 09:50:06;;;;;;;6.23;1.57;;;16.40;95.80;;;;;;4968378;29;20492;-67
2022/12/30 09:53:05;;;;;;;1.30;1.20;;;16.40;96.70;;;;;;4965552;29;20465;-68
2022/12/30 09:55:44;;;;;;;1.00;1.00;;;16.20;95.80;;;;;;4955476;28;20462;-69
2022/12/30 09:58:15;;;;;;;1.43;1.33;;;16.00;96.60;;;;;;4940875;29;20491;-66
2022/12/30 10:00:41;;;;;;;1.07;0.97;;;15.80;96.00;;;;;;4962980;29;20491;-69
2022/12/30 10:03:25;;;;;;;1.63;1.30;;;15.70;96.10;;;;;;4958717;28;20455;-67
2022/12/30 10:06:12;;;;;;;0.93;0.93;;;15.70;96.80;;;;;;4985702;28;20611;-67
2022/12/30 10:08:57;;;;;;;0.83;0.80;;;15.80;96.80;;;;;;4986039;28;20424;-66
2022/12/30 10:11:35;;;;;;;1.57;1.47;;;15.90;96.20;;;;;;4978674;28;20769;-67
2022/12/30 10:14:13;;;;;;;1.37;1.27;;;16.00;96.30;;;;;;4975786;28;20555;-69
2022/12/30 10:17:11;;;;;;;1.10;1.10;;;16.00;96.40;;;;;;4943351;29;20420;-68
2022/12/30 10:19:57;;;;;;;0.93;0.93;;;16.20;96.30;;;;;;4924185;29;20478;-68
2022/12/30 10:22:33;;;;;;;1.30;1.03;;;16.40;96.00;;;;;;4956759;29;20407;-67
2022/12/30 10:25:29;;;;;;;1.30;1.20;;;16.40;95.40;;;;;;4956158;29;20436;-69
2022/12/30 10:27:56;;;;;;;1.40;1.40;;;16.10;95.60;;;;;;4957435;29;20412;-69
2022/12/30 10:30:48;;;;;;;1.03;1.03;;;15.80;96.40;;;;;;4966232;28;21003;-70
2022/12/30 10:33:20;;;;;;;0.90;0.90;;;15.70;96.70;;;;;;4971550;28;20451;-67
2022/12/30 10:35:51;;;;;;;1.53;1.37;;;15.40;97.00;;;;;;4976116;28;20476;-65
2022/12/30 10:38:21;;;;;;;1.10;0.90;;;15.30;97.60;;;;;;4976575;28;20379;-67
2022/12/30 10:41:15;;;;;;;1.10;1.10;;;15.10;96.70;;;;;;4976201;28;20400;-67
2022/12/30 10:43:50;;;;;;;1.07;1.07;;;15.10;97.00;;;;;;4975231;28;20436;-68
2022/12/30 10:46:21;;;;;;;0.90;0.80;;;14.90;97.00;;;;;;4957632;28;20892;-68
2022/12/30 10:49:15;;;;;;;1.57;1.40;;;14.70;97.40;;;;;;4956343;29;20404;-68
2022/12/30 10:51:41;;;;;;;0.70;0.70;;;14.70;97.20;;;;;;4956172;29;20418;-68
2022/12/30 10:54:09;;;;;;;1.10;1.00;;;14.50;97.30;;;;;;4956097;29;20432;-68
2022/12/30 10:56:35;;;;;;;0.90;0.70;;;14.40;97.50;;;;;;4956962;29;20738;-67
2022/12/30 10:59:12;;;;;;;1.00;1.00;;;14.00;97.70;;;;;;4958224;28;20408;-67
2022/12/30 11:01:39;;;;;;;0.70;0.70;;;13.60;98.50;;;;;;4975558;28;20432;-67
2022/12/30 11:04:05;;;;;;;1.17;0.80;;;13.30;98.90;;;;;;4974559;28;20410;-67
2022/12/30 11:06:37;;;;;;;5.30;1.17;;;13.00;99.60;;;;;;4975053;28;20542;-64
2022/12/30 11:09:22;;;;;;;1.00;1.00;;;12.80;99.90;;;;;;4975060;28;20164;-67
2022/12/30 11:14:44;;;;;;;0.60;0.60;;;12.50;99.90;;;;;;4973659;28;20461;-66
2022/12/30 11:17:25;;;;;;;1.13;0.80;;;12.30;99.90;;;;;;4975050;28;20505;-67
2022/12/30 11:20:20;;;;;;;0.90;0.90;;;12.00;99.90;;;;;;4957489;28;20421;-67
2022/12/30 11:22:47;;;;;;;1.23;1.13;;;11.80;99.90;;;;;;4974628;28;20414;-68
2022/12/30 11:25:43;;;;;;;0.90;0.90;;;11.50;99.90;;;;;;4974554;28;20438;-65
2022/12/30 11:28:20;;;;;;;0.93;0.87;;;11.40;99.90;;;;;;4943422;29;20494;-67
2022/12/30 11:30:51;;;;;;;1.20;1.10;;;11.30;99.90;;;;;;4955714;29;20381;-67
2022/12/30 11:33:28;;;;;;;1.20;1.10;;;11.20;99.90;;;;;;4938076;29;20414;-67
2022/12/30 11:36:30;;;;;;;2.40;1.07;;;11.10;99.90;;;;;;4955456;29;20416;-66
2022/12/30 11:39:15;;;;;;;1.33;1.10;;;11.00;99.90;;;;;;4955314;28;20846;-66
2022/12/30 11:41:52;;;;;;;0.83;0.83;;;10.90;99.90;;;;;;4944870;28;20436;-65
2022/12/30 11:44:23;;;;;;;1.50;1.30;;;10.90;99.90;;;;;;4954950;29;20482;-69
2022/12/30 11:46:55;;;;;;;0.77;0.67;;;10.80;99.90;;;;;;4955228;29;20459;-67
2022/12/30 11:49:46;;;;;;;0.80;0.80;;;10.70;99.90;;;;;;4955437;29;20403;-68
2022/12/30 11:52:26;;;;;;;0.60;0.60;;;10.70;99.90;;;;;;4955212;29;20179;-68
2022/12/30 11:54:57;;;;;;;1.02;1.02;;;10.70;99.90;;;;;;4954695;29;20182;-67
2022/12/30 11:57:30;;;;;;;0.95;0.85;;;10.60;99.90;;;;;;4965472;28;20180;-66
2022/12/30 12:00:24;;;;;;;1.10;0.85;;;10.60;99.90;;;;;;4974416;28;20244;-66
2022/12/30 12:02:57;;;;;;;0.70;0.53;;;10.70;99.90;;;;;;4973872;28;20643;-65
2022/12/30 12:05:42;;;;;;;0.60;0.60;;;10.80;99.90;;;;;;4974046;28;20461;-68
2022/12/30 12:08:10;;;;;;;1.30;1.30;;;10.80;99.90;;;;;;4970932;28;20453;-67
2022/12/30 12:10:37;;;;;;;1.17;0.80;;;10.90;99.90;;;;;;4955076;29;20816;-66
2022/12/30 12:13:25;;;;;;;0.80;0.80;;;10.90;99.90;;;;;;4954494;29;20509;-66
2022/12/30 12:15:54;;;;;;;0.60;0.60;;;11.00;99.90;;;;;;4954849;29;20200;-67
2022/12/30 12:18:27;;;;;;;0.93;0.87;;;11.00;99.90;;;;;;4955139;29;20888;-67
2022/12/30 12:21:05;;;;;;;0.70;0.70;;;11.10;99.90;;;;;;4955090;29;20413;-66
2022/12/30 12:23:53;;;;;;;0.60;0.60;;;11.10;99.90;;;;;;4954418;28;20446;-65
2022/12/30 12:26:25;;;;;;;0.50;0.50;;;11.20;99.90;;;;;;4954822;28;20455;-66
2022/12/30 12:28:53;;;;;;;1.20;1.03;;;11.20;99.90;;;;;;4958658;29;20415;-66
2022/12/30 12:31:46;;;;;;;0.93;0.93;;;11.20;99.90;;;;;;4958516;29;20417;-66
2022/12/30 12:34:36;;;;;;;1.20;1.10;;;11.20;99.90;;;;;;4958055;29;20422;-66
2022/12/30 12:37:29;;;;;;;0.70;0.60;;;11.20;99.90;;;;;;4962434;28;20496;-68
2022/12/30 12:40:39;;;;;;;0.70;0.70;;;11.20;99.90;;;;;;4978066;28;20436;-65
2022/12/30 12:43:42;;;;;;;0.60;0.50;;;11.10;99.90;;;;;;4932262;28;20488;-65
2022/12/30 12:46:24;;;;;;;0.60;0.60;;;11.10;99.90;;;;;;4977630;28;20618;-66
2022/12/30 12:49:16;;;;;;;0.50;0.50;;;11.10;99.90;;;;;;4977617;28;20402;-68
2022/12/30 12:52:00;;;;;;;0.53;0.53;;;11.10;99.90;;;;;;4973546;28;20232;-66
2022/12/30 12:54:31;;;;;;;0.87;0.70;;;11.10;99.90;;;;;;4957634;29;20432;-65
2022/12/30 12:57:11;;;;;;;1.80;0.60;;;11.10;99.90;;;;;;4958071;29;20380;-67
2022/12/30 12:59:45;;;;;;;2.10;1.07;;;11.10;99.90;;;;;;4958628;29;20476;-67
2022/12/30 13:02:39;;;;;;;0.60;0.60;;;11.10;99.90;;;;;;4958437;29;20451;-66
2022/12/30 13:05:27;;;;;;;2.83;0.73;;;11.20;99.90;;;;;;4957307;29;20461;-66
2022/12/30 13:08:17;;;;;;;1.48;1.38;;;11.20;99.90;;;;;;4975515;28;20489;-66
2022/12/30 13:11:11;;;;;;;0.80;0.50;;;11.10;99.90;;;;;;4977067;28;20221;-67
2022/12/30 13:13:55;;;;;;;0.50;0.50;;;11.10;99.90;;;;;;4976721;28;20451;-67
2022/12/30 13:16:26;;;;;;;0.50;0.50;;;11.10;99.90;;;;;;4977060;28;20237;-66
2022/12/30 13:18:55;;;;;;;0.80;0.70;;;11.10;99.90;;;;;;4976818;28;20472;-67
2022/12/30 13:21:25;;;;;;;0.40;0.40;;;11.10;99.90;;;;;;4968745;28;20434;-68
2022/12/30 13:23:57;;;;;;;0.50;0.40;;;11.10;99.90;;;;;;4956892;29;20799;-66
2022/12/30 13:26:25;;;;;;;0.53;0.53;;;11.10;99.90;;;;;;4957344;29;20470;-65
2022/12/30 13:28:56;;;;;;;0.40;0.40;;;11.10;99.90;;;;;;4957120;29;20412;-66
2022/12/30 13:31:42;;;;;;;0.50;0.50;;;11.10;99.90;;;;;;4957231;29;20414;-66
2022/12/30 13:34:29;;;;;;;0.60;0.60;;;11.10;99.90;;;;;;4956557;29;20429;-67
2022/12/30 13:37:03;;;;;;;0.77;0.77;;;11.10;99.90;;;;;;4971733;28;20495;-66
2022/12/30 13:39:46;;;;;;;0.50;0.50;;;11.20;99.90;;;;;;4975654;28;20514;-67
2022/12/30 13:42:46;;;;;;;0.60;0.60;;;11.10;99.90;;;;;;4976432;28;20906;-67
2022/12/30 13:45:23;;;;;;;0.93;0.60;;;11.10;99.90;;;;;;4976414;28;20216;-66
2022/12/30 13:48:18;;;;;;;0.60;0.60;;;11.10;99.90;;;;;;4976384;28;20415;-65
2022/12/30 13:50:44;;;;;;;0.50;0.50;;;11.10;99.90;;;;;;4951463;29;20801;-66
2022/12/30 13:53:37;;;;;;;0.50;0.50;;;11.10;99.90;;;;;;4956573;29;20410;-68
2022/12/30 13:56:04;;;;;;;1.63;1.00;;;11.10;99.90;;;;;;4956670;29;20730;-67
2022/12/30 13:58:35;;;;;;;0.87;0.87;;;11.10;99.90;;;;;;4956721;29;20415;-68
2022/12/30 14:01:19;;;;;;;1.13;0.70;;;11.10;99.90;;;;;;4956735;29;20461;-66
2022/12/30 14:04:05;;;;;;;0.83;0.50;;;11.10;99.90;;;;;;4956064;29;20410;-67
2022/12/30 14:06:46;;;;;;;0.47;0.47;;;11.10;99.90;;;;;;4972853;28;20822;-68
2022/12/30 14:09:14;;;;;;;0.60;0.60;;;11.20;99.90;;;;;;4975773;28;20781;-64
2022/12/30 14:12:02;;;;;;;0.60;0.60;;;11.10;99.90;;;;;;4975782;28;20758;-65
2022/12/30 14:14:29;;;;;;;0.85;0.85;;;11.20;99.90;;;;;;4960543;28;20474;-68
2022/12/30 14:17:02;;;;;;;1.05;1.05;;;11.20;99.90;;;;;;4956283;29;20277;-68
2022/12/30 14:19:56;;;;;;;0.85;0.85;;;11.10;99.90;;;;;;4956438;29;20203;-66
2022/12/30 14:22:40;;;;;;;2.63;1.00;;;11.10;99.90;;;;;;4956102;29;20711;-67
2022/12/30 14:25:34;;;;;;;0.77;0.70;;;11.10;99.90;;;;;;4956027;29;20197;-66
2022/12/30 14:28:09;;;;;;;1.67;1.10;;;11.10;99.90;;;;;;4961211;28;20181;-66
2022/12/30 14:30:43;;;;;;;2.17;2.08;;;11.10;99.90;;;;;;4975565;28;20177;-67
2022/12/30 14:33:44;;;;;;;1.13;1.05;;;11.10;99.90;;;;;;4975138;28;20261;-66
2022/12/30 14:36:24;;;;;;;0.93;0.93;;;11.00;99.90;;;;;;4954558;28;20184;-66
2022/12/30 14:38:50;;;;;;;1.48;1.38;;;11.00;99.90;;;;;;4959143;28;20276;-68
2022/12/30 14:41:36;;;;;;;2.40;1.93;;;10.90;99.90;;;;;;4975122;28;20220;-68
2022/12/30 14:44:27;;;;;;;1.77;1.50;;;10.90;99.90;;;;;;4974498;28;20215;-66
2022/12/30 14:46:56;;;;;;;2.22;1.50;;;10.80;99.90;;;;;;4974385;28;20212;-65
2022/12/30 14:49:29;;;;;;;1.40;1.30;;;10.80;99.90;;;;;;4974442;28;20168;-66
2022/12/30 14:52:10;;;;;;;1.60;1.50;;;10.70;99.90;;;;;;4975103;28;20191;-65
2022/12/30 14:54:38;;;;;;;2.58;1.95;;;10.70;99.90;;;;;;4974026;28;20207;-67
2022/12/30 14:57:17;;;;;;;3.20;2.83;;;10.60;99.90;;;;;;4957714;28;20276;-67
2022/12/30 14:59:52;;;;;;;1.33;1.25;;;10.60;99.90;;;;;;4974942;28;20207;-67
2022/12/30 15:02:30;;;;;;;2.22;1.30;;;10.60;99.90;;;;;;4975133;28;20176;-66
2022/12/30 15:05:14;;;;;;;2.28;1.65;;;10.60;99.90;;;;;;4974319;28;20682;-65
2022/12/30 15:07:42;;;;;;;2.45;1.70;;;10.60;99.90;;;;;;4974927;28;20631;-67
2022/12/30 15:10:25;;;;;;;2.00;1.75;;;10.60;99.90;;;;;;4958443;28;20651;-67
2022/12/30 15:12:52;;;;;;;1.20;1.20;;;10.60;99.90;;;;;;4955366;29;20627;-67
2022/12/30 15:15:24;;;;;;;1.15;0.90;;;10.60;99.90;;;;;;4955452;29;20255;-67
2022/12/30 15:17:50;;;;;;;1.83;1.17;;;10.60;99.90;;;;;;4955435;29;20186;-65
2022/12/30 15:20:29;;;;;;;0.80;0.80;;;10.50;99.90;;;;;;4955234;29;20698;-67
2022/12/30 15:22:55;;;;;;;1.02;0.90;;;10.50;99.90;;;;;;4954739;28;20248;-65
2022/12/30 15:25:23;;;;;;;1.33;0.80;;;10.40;99.90;;;;;;4955251;29;20611;-65
2022/12/30 15:27:57;;;;;;;1.10;1.00;;;10.30;99.90;;;;;;4955218;29;20172;-68
2022/12/30 15:30:24;;;;;;;0.70;0.70;;;10.30;99.90;;;;;;4955444;29;20516;-67
2022/12/30 15:33:08;;;;;;;0.50;0.50;;;10.30;99.90;;;;;;4937492;29;20172;-66
2022/12/30 15:35:38;;;;;;;0.85;0.85;;;10.30;99.90;;;;;;4937803;29;20203;-66
2022/12/30 15:38:05;;;;;;;0.95;0.80;;;10.20;99.90;;;;;;4958851;28;20583;-65
2022/12/30 15:40:33;;;;;;;1.00;0.90;;;10.20;99.90;;;;;;4974468;28;20539;-67
2022/12/30 15:43:07;;;;;;;0.50;0.50;;;10.20;99.90;;;;;;4974100;28;20299;-65
2022/12/30 15:45:40;;;;;;;0.70;0.70;;;10.10;99.90;;;;;;4974403;28;20231;-65
2022/12/30 15:48:30;;;;;;;0.93;0.80;;;10.10;99.90;;;;;;4974493;28;20211;-67
2022/12/30 15:51:08;;;;;;;0.60;0.60;;;10.00;99.90;;;;;;4974543;28;20176;-65
2022/12/30 15:53:35;;;;;;;0.50;0.50;;;9.90;99.90;;;;;;4946523;29;20651;-67
2022/12/30 15:56:02;;;;;;;0.80;0.80;;;9.90;99.90;;;;;;4937772;29;20180;-65
2022/12/30 15:58:40;;;;;;;0.70;0.70;;;9.90;99.90;;;;;;4955211;29;20177;-65
2022/12/30 16:01:12;;;;;;;0.55;0.55;;;9.80;99.90;;;;;;4955920;28;20176;-65
2022/12/30 16:03:38;;;;;;;1.00;1.00;;;9.80;99.90;;;;;;4958298;29;20264;-66
2022/12/30 16:06:05;;;;;;;0.90;0.90;;;9.80;99.90;;;;;;4961684;28;20282;-65
2022/12/30 16:08:36;;;;;;;1.50;1.35;;;9.80;99.90;;;;;;4978116;28;20181;-67
2022/12/30 16:11:09;;;;;;;1.35;1.35;;;9.80;99.90;;;;;;4978754;28;20215;-66
2022/12/30 16:13:39;;;;;;;0.65;0.65;;;9.80;99.90;;;;;;4977536;28;20174;-68
2022/12/30 16:16:21;;;;;;;0.70;0.70;;;9.90;99.90;;;;;;4978222;28;20180;-67
2022/12/30 16:19:10;;;;;;;1.10;0.80;;;9.90;99.90;;;;;;4978426;28;20254;-68
2022/12/30 16:21:38;;;;;;;1.63;1.52;;;9.90;99.90;;;;;;4967646;28;20185;-67
2022/12/30 16:24:20;;;;;;;0.77;0.77;;;9.90;99.90;;;;;;4958233;29;20376;-65
2022/12/30 16:26:52;;;;;;;0.60;0.60;;;9.90;99.90;;;;;;4958433;29;20236;-68
2022/12/30 16:29:25;;;;;;;0.75;0.75;;;10.00;99.90;;;;;;4941428;29;20176;-68
2022/12/30 16:31:51;;;;;;;1.20;1.20;;;10.00;99.90;;;;;;4958343;29;20184;-66
2022/12/30 16:34:16;;;;;;;1.13;1.03;;;10.00;99.90;;;;;;4957930;29;20188;-67
2022/12/30 16:36:43;;;;;;;2.10;0.77;;;10.10;99.90;;;;;;4970924;28;20184;-66
2022/12/30 16:39:10;;;;;;;0.80;0.80;;;10.10;99.90;;;;;;4960976;28;20188;-67
2022/12/30 16:41:35;;;;;;;1.00;1.00;;;10.10;99.90;;;;;;4957864;29;20176;-65
2022/12/30 16:44:01;;;;;;;1.03;0.80;;;10.20;99.90;;;;;;4957547;29;20256;-66
2022/12/30 16:46:28;;;;;;;0.60;0.60;;;10.20;99.90;;;;;;4958094;29;20216;-67
2022/12/30 16:48:55;;;;;;;0.60;0.60;;;10.30;99.90;;;;;;4958081;29;20201;-66
2022/12/30 16:51:31;;;;;;;0.63;0.63;;;10.40;99.90;;;;;;4963734;28;20263;-65
2022/12/30 16:53:59;;;;;;;0.73;0.73;;;10.40;99.90;;;;;;4957579;29;20196;-65
2022/12/30 16:56:25;;;;;;;0.75;0.75;;;10.50;99.90;;;;;;4957834;29;20185;-66
2022/12/30 16:58:50;;;;;;;0.67;0.67;;;10.50;99.90;;;;;;4958270;29;20724;-67
2022/12/30 17:01:16;;;;;;;1.77;1.27;;;10.50;99.90;;;;;;4957828;29;20173;-67
2022/12/30 17:03:44;;;;;;;0.60;0.60;;;10.60;99.90;;;;;;4956876;29;20179;-67
2022/12/30 17:06:13;;;;;;;1.70;1.58;;;10.70;99.90;;;;;;4952705;28;20487;-67
2022/12/30 17:08:40;;;;;;;1.92;1.17;;;10.70;99.90;;;;;;4976955;28;20218;-65
2022/12/30 17:11:13;;;;;;;1.00;0.90;;;10.80;99.90;;;;;;4976770;28;20177;-67
2022/12/30 17:13:42;;;;;;;0.80;0.80;;;10.80;99.90;;;;;;4975799;28;20203;-67
2022/12/30 17:16:31;;;;;;;0.70;0.70;;;10.90;99.90;;;;;;4977476;28;20260;-67
2022/12/30 17:18:58;;;;;;;0.60;0.60;;;11.00;99.90;;;;;;4966141;28;20191;-66
2022/12/30 17:21:26;;;;;;;0.70;0.70;;;11.00;99.90;;;;;;4957511;29;20188;-66
2022/12/30 17:23:55;;;;;;;2.03;0.73;;;11.00;99.90;;;;;;4956978;29;20504;-66
2022/12/30 17:26:22;;;;;;;0.80;0.80;;;11.10;99.90;;;;;;4957513;29;20265;-67
2022/12/30 17:28:49;;;;;;;0.93;0.65;;;11.10;99.90;;;;;;4957443;29;20174;-66
2022/12/30 17:31:21;;;;;;;0.95;0.95;;;11.20;99.90;;;;;;4972308;28;20184;-68
2022/12/30 17:33:46;;;;;;;1.00;0.98;;;11.30;99.90;;;;;;4956544;28;20287;-67
2022/12/30 17:36:15;;;;;;;0.50;0.50;;;11.30;99.90;;;;;;4956961;29;20662;-66
2022/12/30 17:38:41;;;;;;;1.30;0.90;;;11.30;99.90;;;;;;4954046;28;20177;-68
2022/12/30 17:41:06;;;;;;;2.55;0.90;;;11.40;99.90;;;;;;4975731;28;20268;-67
2022/12/30 17:43:32;;;;;;;2.63;0.83;;;11.40;99.90;;;;;;4976117;28;20270;-68
2022/12/30 17:45:58;;;;;;;0.80;0.80;;;11.40;99.90;;;;;;4976440;28;20200;-67
2022/12/30 17:48:24;;;;;;;1.57;1.07;;;11.50;99.90;;;;;;4965715;28;20212;-66
2022/12/30 17:50:50;;;;;;;0.87;0.80;;;11.50;99.90;;;;;;4957117;29;20165;-67
2022/12/30 17:53:16;;;;;;;1.00;0.90;;;11.50;99.90;;;;;;4956766;29;20404;-66
2022/12/30 17:55:44;;;;;;;0.80;0.80;;;11.60;99.90;;;;;;4956990;29;20461;-67
2022/12/30 17:58:11;;;;;;;0.80;0.80;;;11.60;99.90;;;;;;4957150;29;20421;-66
2022/12/30 18:00:38;;;;;;;1.30;0.90;;;11.60;99.90;;;;;;4956992;29;20410;-67
2022/12/30 18:03:04;;;;;;;0.70;0.70;;;11.70;99.90;;;;;;4939075;29;20441;-67
2022/12/30 18:05:30;;;;;;;0.60;0.60;;;11.70;99.90;;;;;;4956842;29;20486;-67
2022/12/30 18:07:55;;;;;;;0.70;0.70;;;11.80;99.90;;;;;;4956757;29;20913;-67
2022/12/30 18:10:22;;;;;;;0.67;0.67;;;11.90;99.90;;;;;;4956779;29;20410;-67
2022/12/30 18:12:49;;;;;;;0.90;0.90;;;11.90;99.90;;;;;;4956620;29;20241;-66
2022/12/30 18:15:14;;;;;;;0.50;0.50;;;12.00;99.90;;;;;;4956382;29;20435;-66
2022/12/30 18:17:41;;;;;;;0.67;0.67;;;12.00;99.90;;;;;;4965291;28;20516;-65
2022/12/30 18:20:07;;;;;;;2.03;1.93;;;12.00;99.90;;;;;;4975969;28;20255;-65
2022/12/30 18:22:34;;;;;;;0.60;0.60;;;12.00;99.90;;;;;;4975596;28;20409;-66
2022/12/30 18:24:59;;;;;;;0.80;0.70;;;12.00;99.90;;;;;;4975327;28;20951;-65
2022/12/30 18:27:25;;;;;;;0.73;0.73;;;12.10;99.90;;;;;;4958400;28;20216;-66
2022/12/30 18:29:51;;;;;;;1.30;1.27;;;12.10;99.90;;;;;;4973697;28;20168;-66